createdAt,value
2022-08-05T00:01:27.868Z,6.93
2022-08-05T00:03:57.102Z,10.38
2022-08-05T00:06:32.442Z,10.40
2022-08-05T00:09:00.812Z,11.63
2022-08-05T00:11:34.481Z,18.70
2022-08-05T00:14:02.371Z,9.88
2022-08-05T00:16:52.622Z,12.30
2022-08-05T00:19:21.528Z,7.43
2022-08-05T00:21:48.846Z,7.93
2022-08-05T00:24:18.941Z,17.77
2022-08-05T00:26:51.690Z,9.25
2022-08-05T00:29:18.889Z,9.85
2022-08-05T00:32:10.514Z,9.77
2022-08-05T00:34:54.741Z,8.65
2022-08-05T00:37:23.914Z,8.63
2022-08-05T00:39:58.089Z,9.90
2022-08-05T00:42:36.680Z,9.70
2022-08-05T00:45:04.825Z,7.90
2022-08-05T00:47:56.476Z,13.07
2022-08-05T00:50:21.911Z,14.20
2022-08-05T00:52:52.128Z,10.85
2022-08-05T00:55:20.003Z,9.88
2022-08-05T00:57:55.691Z,11.05
2022-08-05T01:00:29.817Z,5.68
2022-08-05T01:02:56.718Z,9.73
2022-08-05T01:05:23.688Z,8.13
2022-08-05T01:08:30.789Z,12.68
2022-08-05T01:11:02.408Z,12.35
2022-08-05T01:13:58.876Z,9.25
2022-08-05T01:16:33.623Z,8.00
2022-08-05T01:19:06.552Z,11.13
2022-08-05T01:21:37.814Z,8.48
2022-08-05T01:24:13.226Z,16.95
2022-08-05T01:26:59.608Z,13.13
2022-08-05T01:29:31.566Z,9.57
2022-08-05T01:32:03.576Z,16.23
2022-08-05T01:34:30.878Z,18.33
2022-08-05T01:37:18.051Z,13.00
2022-08-05T01:39:54.933Z,9.00
2022-08-05T01:42:26.611Z,17.83
2022-08-05T01:44:55.957Z,20.75
2022-08-05T01:47:24.408Z,18.80
2022-08-05T01:50:08.257Z,19.77
2022-08-05T01:52:42.995Z,21.25
2022-08-05T01:55:12.906Z,17.98
2022-08-05T01:58:18.880Z,19.17
2022-08-05T02:00:29.894Z,14.75
2022-08-05T02:03:04.227Z,16.67
2022-08-05T02:05:34.243Z,10.30
2022-08-05T02:08:02.714Z,18.40
2022-08-05T02:10:32.847Z,19.27
2022-08-05T02:13:16.097Z,14.27
2022-08-05T02:16:06.544Z,17.65
2022-08-05T02:18:42.973Z,15.82
2022-08-05T02:21:15.555Z,16.02
2022-08-05T02:23:43.620Z,15.57
2022-08-05T02:26:13.330Z,15.38
2022-08-05T02:28:45.947Z,24.17
2022-08-05T02:31:16.462Z,20.13
2022-08-05T02:34:03.190Z,16.27
2022-08-05T02:36:31.343Z,29.70
2022-08-05T02:38:58.399Z,20.30
2022-08-05T02:41:28.710Z,24.75
2022-08-05T02:44:11.834Z,21.30
2022-08-05T02:46:53.092Z,23.98
2022-08-05T02:49:35.783Z,20.30
2022-08-05T02:52:04.798Z,21.45
2022-08-05T02:54:35.726Z,22.85
2022-08-05T02:57:05.288Z,29.35
2022-08-05T02:59:50.126Z,31.67
2022-08-05T03:02:19.598Z,80.60
2022-08-05T03:04:53.318Z,114.45
2022-08-05T03:08:00.505Z,95.03
2022-08-05T03:10:07.090Z,65.53
2022-08-05T03:12:34.452Z,123.15
2022-08-05T03:15:01.222Z,147.77
2022-08-05T03:17:28.476Z,207.63
2022-08-05T03:19:55.175Z,67.45
2022-08-05T03:22:32.148Z,75.70
2022-08-05T03:25:11.522Z,49.78
2022-08-05T03:27:59.202Z,116.00
2022-08-05T03:30:33.420Z,28.05
2022-08-05T03:33:01.364Z,41.33
2022-08-05T03:35:29.137Z,31.83
2022-08-05T03:38:00.340Z,25.17
2022-08-05T03:40:32.059Z,71.85
2022-08-05T03:43:15.975Z,25.77
2022-08-05T03:45:57.234Z,25.38
2022-08-05T03:48:24.973Z,27.58
2022-08-05T03:52:36.506Z,65.72
2022-08-05T03:55:53.226Z,51.50
2022-08-05T03:56:58.958Z,50.33
2022-08-05T03:59:46.716Z,36.10
2022-08-05T04:02:17.563Z,45.60
2022-08-05T04:05:02.454Z,58.13
2022-08-05T04:07:29.812Z,57.17
2022-08-05T04:09:59.995Z,29.98
2022-08-05T04:12:30.043Z,68.07
2022-08-05T04:14:59.121Z,58.83
2022-08-05T04:17:25.979Z,133.45
2022-08-05T04:20:20.005Z,35.42
2022-08-05T04:22:47.150Z,83.22
2022-08-05T04:25:15.707Z,29.75
2022-08-05T04:27:43.872Z,83.60
2022-08-05T04:30:24.827Z,68.10
2022-08-05T04:32:53.438Z,131.02
2022-08-05T04:35:20.205Z,42.03
2022-08-05T04:38:00.724Z,44.95
2022-08-05T04:40:29.598Z,26.13
2022-08-05T04:42:56.103Z,100.13
2022-08-05T04:45:48.310Z,73.88
2022-08-05T04:48:18.743Z,70.28
2022-08-05T04:51:01.852Z,34.33
2022-08-05T04:53:38.778Z,89.25
2022-08-05T04:56:33.554Z,27.45
2022-08-05T04:58:58.674Z,88.28
2022-08-05T05:02:05.725Z,37.50
2022-08-05T05:04:12.344Z,63.85
2022-08-05T05:06:44.804Z,102.65
2022-08-05T05:09:14.032Z,105.38
2022-08-05T05:11:52.902Z,42.92
2022-08-05T05:14:31.273Z,118.57
2022-08-05T05:17:01.908Z,47.88
2022-08-05T05:19:36.287Z,54.92
2022-08-05T05:22:24.016Z,39.97
2022-08-05T05:24:58.619Z,73.05
2022-08-05T05:27:45.796Z,48.55
2022-08-05T05:30:15.682Z,82.80
2022-08-05T05:33:00.123Z,85.10
2022-08-05T05:35:29.117Z,56.95
2022-08-05T05:38:02.943Z,109.15
2022-08-05T05:40:30.277Z,82.25
2022-08-05T05:43:02.112Z,57.72
2022-08-05T05:45:29.099Z,56.60
2022-08-05T05:48:06.000Z,69.65
2022-08-05T05:50:34.205Z,120.30
2022-08-05T05:53:02.592Z,111.93
2022-08-05T05:55:51.549Z,190.90
2022-08-05T05:58:30.199Z,103.55
2022-08-05T06:01:13.121Z,116.03
2022-08-05T06:04:01.226Z,183.02
2022-08-05T06:06:34.841Z,54.60
2022-08-05T06:09:03.918Z,184.40
2022-08-05T06:11:31.128Z,80.75
2022-08-05T06:14:00.344Z,111.82
2022-08-05T06:16:36.776Z,132.23
2022-08-05T06:19:05.653Z,166.60
2022-08-05T06:21:37.224Z,78.60
2022-08-05T06:24:12.124Z,72.60
2022-08-05T06:26:51.049Z,77.85
2022-08-05T06:29:42.860Z,116.47
2022-08-05T06:32:06.274Z,162.20
2022-08-05T06:34:48.399Z,53.15
2022-08-05T06:37:55.931Z,188.50
2022-08-05T06:40:07.733Z,140.05
2022-08-05T06:42:34.311Z,116.13
2022-08-05T06:45:05.512Z,102.30
2022-08-05T06:48:44.433Z,82.40
2022-08-05T06:50:21.972Z,244.57
2022-08-05T06:52:58.450Z,73.13
2022-08-05T06:55:25.846Z,263.08
2022-08-05T06:58:03.890Z,289.75
2022-08-05T07:00:41.130Z,137.38
2022-08-05T07:03:09.772Z,371.48
2022-08-05T07:05:37.138Z,254.38
2022-08-05T07:08:04.741Z,218.95
2022-08-05T07:10:32.665Z,373.23
2022-08-05T07:13:18.040Z,161.27
2022-08-05T07:17:57.244Z,330.80
2022-08-05T07:19:09.577Z,410.90
2022-08-05T07:22:00.231Z,282.88
2022-08-05T07:24:23.427Z,183.65
2022-08-05T07:26:55.357Z,154.50
2022-08-05T07:30:22.181Z,167.38
2022-08-05T07:32:12.109Z,127.85
2022-08-05T07:34:42.388Z,92.90
2022-08-05T07:37:11.481Z,79.20
2022-08-05T07:40:26.012Z,83.32
2022-08-05T07:42:31.769Z,94.07
2022-08-05T07:45:00.953Z,83.72
2022-08-05T07:47:27.502Z,122.35
2022-08-05T07:50:09.595Z,118.32
2022-08-05T07:52:42.554Z,74.30
2022-08-05T07:55:43.983Z,70.97
2022-08-05T07:58:03.049Z,67.55
2022-08-05T08:00:29.935Z,68.97
2022-08-05T08:03:14.062Z,86.00
2022-08-05T08:05:47.569Z,68.40
2022-08-05T08:08:16.707Z,38.95
2022-08-05T08:10:48.976Z,52.10
2022-08-05T08:13:15.731Z,43.63
2022-08-05T08:16:50.038Z,50.13
2022-08-05T08:18:35.495Z,33.72
2022-08-05T08:21:09.932Z,40.58
2022-08-05T08:24:01.768Z,32.42
2022-08-05T08:26:30.002Z,52.85
2022-08-05T08:28:59.120Z,51.60
2022-08-05T08:31:29.050Z,41.67
2022-08-05T08:33:59.523Z,41.47
2022-08-05T08:36:38.778Z,23.52
2022-08-05T08:39:15.397Z,38.33
2022-08-05T08:41:51.930Z,27.27
2022-08-05T08:45:19.194Z,46.40
2022-08-05T08:47:47.133Z,21.83
2022-08-05T08:51:03.523Z,26.65
2022-08-05T08:52:53.836Z,23.95
2022-08-05T08:56:03.116Z,24.55
2022-08-05T08:58:10.227Z,33.75
2022-08-05T09:00:41.489Z,18.08
2022-08-05T09:03:09.249Z,34.58
2022-08-05T09:05:38.951Z,25.65
2022-08-05T09:08:27.460Z,28.92
2022-08-05T09:10:57.585Z,19.88
2022-08-05T09:13:25.399Z,19.40
2022-08-05T09:16:02.181Z,17.40
2022-08-05T09:18:31.247Z,15.45
2022-08-05T09:21:00.110Z,11.68
2022-08-05T09:23:37.349Z,15.60
2022-08-05T09:26:20.577Z,25.40
2022-08-05T09:28:48.190Z,16.73
2022-08-05T09:31:43.198Z,22.50
2022-08-05T09:34:06.513Z,17.27
2022-08-05T09:36:54.014Z,18.65
2022-08-05T09:39:41.268Z,14.80
2022-08-05T09:42:13.529Z,14.75
2022-08-05T09:44:49.464Z,24.20
2022-08-05T09:47:21.538Z,14.45
2022-08-05T09:50:00.681Z,23.25
2022-08-05T09:52:36.503Z,16.20
2022-08-05T09:55:57.458Z,18.50
2022-08-05T09:58:09.988Z,18.65
2022-08-05T10:00:38.235Z,17.80
2022-08-05T10:03:11.161Z,23.80
2022-08-05T10:05:38.483Z,12.75
2022-08-05T10:08:34.999Z,20.10
2022-08-05T10:10:54.576Z,17.85
2022-08-05T10:13:43.953Z,14.45
2022-08-05T10:16:34.319Z,14.85
2022-08-05T10:19:09.103Z,14.85
2022-08-05T10:21:40.492Z,20.23
2022-08-05T10:24:11.094Z,16.35
2022-08-05T10:26:51.732Z,14.40
2022-08-05T10:29:24.199Z,11.10
2022-08-05T10:32:53.401Z,11.85
2022-08-05T10:35:00.916Z,12.23
2022-08-05T10:37:40.498Z,9.20
2022-08-05T10:40:19.445Z,8.20
2022-08-05T10:42:50.210Z,12.65
2022-08-05T10:45:23.395Z,9.23
2022-08-05T10:48:30.613Z,11.77
2022-08-05T10:51:04.156Z,7.82
2022-08-05T10:53:42.604Z,10.68
2022-08-05T10:56:25.057Z,9.40
2022-08-05T10:58:55.512Z,7.40
2022-08-05T11:01:55.303Z,7.32
2022-08-05T11:04:22.875Z,8.10
2022-08-05T11:07:04.435Z,9.02
2022-08-05T11:09:46.661Z,10.48
2022-08-05T11:12:32.710Z,4.47
2022-08-05T11:15:19.857Z,5.90
2022-08-05T11:17:59.953Z,6.97
2022-08-05T11:20:31.477Z,6.57
2022-08-05T11:23:06.026Z,5.18
2022-08-05T11:26:05.626Z,12.30
2022-08-05T11:28:30.630Z,6.15
2022-08-05T11:31:02.459Z,5.70
2022-08-05T11:33:46.471Z,10.07
2022-08-05T11:36:16.385Z,6.32
2022-08-05T11:39:01.459Z,5.63
2022-08-05T11:41:56.377Z,7.88
2022-08-05T11:44:40.463Z,5.63
2022-08-05T11:47:14.130Z,3.78
2022-08-05T11:49:51.029Z,6.00
2022-08-05T11:52:29.229Z,6.70
2022-08-05T11:54:57.500Z,5.93
2022-08-05T11:57:29.404Z,5.70
2022-08-05T11:59:57.884Z,5.60
2022-08-05T12:02:31.646Z,4.25
2022-08-05T12:05:06.871Z,4.45
2022-08-05T12:08:08.837Z,4.90
2022-08-05T12:10:38.561Z,4.80
2022-08-05T12:13:16.830Z,6.50
2022-08-05T12:15:44.937Z,11.10
2022-08-05T12:18:12.348Z,7.40
2022-08-05T12:20:39.386Z,6.03
2022-08-05T12:23:10.779Z,6.20
2022-08-05T12:25:56.750Z,5.68
2022-08-05T12:28:31.992Z,7.53
2022-08-05T12:31:02.043Z,6.10
2022-08-05T12:33:38.639Z,8.98
2022-08-05T12:36:07.886Z,9.13
2022-08-05T12:38:36.283Z,8.35
2022-08-05T12:41:03.634Z,7.50
2022-08-05T12:43:32.021Z,9.80
2022-08-05T12:45:58.933Z,6.25
2022-08-05T12:48:32.167Z,7.65
2022-08-05T12:52:11.051Z,7.18
2022-08-05T12:54:05.080Z,8.88
2022-08-05T12:56:46.845Z,6.75
2022-08-05T12:59:27.612Z,5.65
2022-08-05T13:02:09.893Z,5.18
2022-08-05T13:04:41.606Z,6.80
2022-08-05T13:07:16.130Z,8.07
2022-08-05T13:09:54.498Z,8.27
2022-08-05T13:12:29.624Z,6.95
2022-08-05T13:14:59.168Z,6.25
2022-08-05T13:17:41.217Z,5.70
2022-08-05T13:20:20.394Z,6.88
2022-08-05T13:22:51.697Z,5.47
2022-08-05T13:25:22.026Z,5.90
2022-08-05T13:28:06.893Z,5.72
2022-08-05T13:30:39.252Z,5.63
2022-08-05T13:33:08.309Z,5.43
2022-08-05T13:35:47.034Z,8.60
2022-08-05T13:38:28.097Z,2.88
2022-08-05T13:40:58.488Z,2.78
2022-08-05T13:43:44.467Z,3.75
2022-08-05T13:46:12.075Z,2.95
2022-08-05T13:48:57.635Z,2.67
2022-08-05T13:51:27.726Z,2.55
2022-08-05T13:53:57.941Z,4.80
2022-08-05T13:56:24.995Z,4.07
2022-08-05T13:58:53.279Z,3.20
2022-08-05T14:01:25.949Z,3.92
2022-08-05T14:04:21.758Z,5.13
2022-08-05T14:06:58.610Z,1.52
2022-08-05T14:09:46.043Z,2.60
2022-08-05T14:12:17.661Z,2.83
2022-08-05T14:14:47.785Z,3.90
2022-08-05T14:17:19.779Z,3.35
2022-08-05T14:19:55.955Z,3.40
2022-08-05T14:22:26.566Z,2.80
2022-08-05T14:24:57.193Z,3.80
2022-08-05T14:27:24.069Z,3.25
2022-08-05T14:29:55.126Z,3.60
2022-08-05T14:32:26.812Z,4.45
2022-08-05T14:34:57.019Z,3.28
2022-08-05T14:37:44.847Z,3.55
2022-08-05T14:40:16.853Z,2.03
2022-08-05T14:42:44.234Z,4.65
2022-08-05T14:45:10.959Z,4.55
2022-08-05T14:48:02.659Z,3.20
2022-08-05T14:50:25.911Z,2.47
2022-08-05T14:52:58.458Z,3.15
2022-08-05T14:55:28.755Z,2.00
2022-08-05T14:58:11.213Z,5.05
2022-08-05T15:00:39.462Z,2.45
2022-08-05T15:03:26.303Z,3.83
2022-08-05T15:06:12.784Z,2.72
2022-08-05T15:09:01.108Z,2.03
2022-08-05T15:11:53.105Z,2.60
2022-08-05T15:14:20.262Z,3.85
2022-08-05T15:17:00.856Z,2.17
2022-08-05T15:19:28.030Z,1.98
2022-08-05T15:21:59.984Z,2.47
2022-08-05T15:24:27.405Z,2.35
2022-08-05T15:26:55.951Z,3.78
2022-08-05T15:29:29.846Z,2.03
2022-08-05T15:31:57.314Z,2.40
2022-08-05T15:34:33.197Z,2.65
2022-08-05T15:37:06.960Z,2.47
2022-08-05T15:40:58.699Z,2.60
2022-08-05T15:42:54.306Z,1.98
2022-08-05T15:45:18.748Z,2.78
2022-08-05T15:47:54.407Z,3.78
2022-08-05T15:50:25.191Z,2.60
2022-08-05T15:52:55.304Z,3.70
2022-08-05T15:55:24.912Z,2.13
2022-08-05T15:58:16.703Z,2.75
2022-08-05T16:00:57.092Z,3.53
2022-08-05T16:03:32.669Z,1.55
2022-08-05T16:06:00.537Z,3.13
2022-08-05T16:08:30.615Z,3.15
2022-08-05T16:10:57.719Z,4.43
2022-08-05T16:13:24.259Z,2.17
2022-08-05T16:16:01.120Z,0.98
2022-08-05T16:18:28.945Z,2.53
2022-08-05T16:20:55.890Z,1.38
2022-08-05T16:23:23.039Z,1.83
2022-08-05T16:25:55.765Z,3.25
2022-08-05T16:28:24.161Z,1.83
2022-08-05T16:30:52.102Z,3.58
2022-08-05T16:33:19.521Z,3.88
2022-08-05T16:35:49.895Z,1.10
2022-08-05T16:38:25.560Z,2.33
2022-08-05T16:41:00.445Z,3.40
2022-08-05T16:43:29.913Z,3.00
2022-08-05T16:46:03.733Z,1.38
2022-08-05T16:48:35.931Z,1.85
2022-08-05T16:51:08.725Z,2.25
2022-08-05T16:54:03.437Z,2.13
2022-08-05T16:56:24.805Z,1.73
2022-08-05T16:58:51.453Z,2.90
2022-08-05T17:01:18.732Z,0.73
2022-08-05T17:03:48.985Z,1.42
2022-08-05T17:06:16.896Z,1.98
2022-08-05T17:08:52.854Z,5.32
2022-08-05T17:11:25.606Z,2.03
2022-08-05T17:14:00.182Z,4.82
2022-08-05T17:16:35.983Z,1.85
2022-08-05T17:19:07.845Z,3.22
2022-08-05T17:21:37.243Z,6.10
2022-08-05T17:24:28.357Z,2.60
2022-08-05T17:26:56.536Z,2.03
2022-08-05T17:29:33.749Z,2.63
2022-08-05T17:32:11.316Z,1.60
2022-08-05T17:34:39.494Z,1.83
2022-08-05T17:37:29.407Z,1.42
2022-08-05T17:39:55.944Z,1.20
2022-08-05T17:42:30.161Z,2.75
2022-08-05T17:45:17.746Z,1.13
2022-08-05T17:47:51.543Z,2.13
2022-08-05T17:50:28.178Z,2.42
2022-08-05T17:52:57.017Z,2.30
2022-08-05T17:55:27.215Z,2.30
2022-08-05T17:57:55.052Z,1.40
2022-08-05T18:00:28.579Z,2.38
2022-08-05T18:02:56.142Z,1.13
2022-08-05T18:05:28.134Z,4.95
2022-08-05T18:08:01.939Z,2.10
2022-08-05T18:10:29.878Z,2.22
2022-08-05T18:13:12.398Z,2.13
2022-08-05T18:15:39.624Z,2.38
2022-08-05T18:18:11.351Z,1.45
2022-08-05T18:20:41.990Z,1.65
2022-08-05T18:23:13.464Z,2.30
2022-08-05T18:25:44.934Z,5.65
2022-08-05T18:28:12.417Z,1.33
2022-08-05T18:30:50.767Z,1.83
2022-08-05T18:33:23.085Z,2.17
2022-08-05T18:36:03.669Z,2.05
2022-08-05T18:38:36.893Z,1.75
2022-08-05T18:41:58.226Z,1.63
2022-08-05T18:43:51.248Z,2.00
2022-08-05T18:46:20.179Z,1.98
2022-08-05T18:48:52.035Z,5.28
2022-08-05T18:52:06.204Z,2.55
2022-08-05T18:54:31.661Z,2.28
2022-08-05T18:57:01.618Z,1.95
2022-08-05T18:59:42.731Z,1.77
2022-08-05T19:02:26.706Z,4.60
2022-08-05T19:05:01.710Z,2.10
2022-08-05T19:07:45.297Z,2.72
2022-08-05T19:10:13.226Z,1.55
2022-08-05T19:12:40.209Z,4.45
2022-08-05T19:15:10.701Z,5.03
2022-08-05T19:17:59.349Z,2.67
2022-08-05T19:20:36.918Z,3.13
2022-08-05T19:23:07.671Z,1.02
2022-08-05T19:25:39.035Z,0.93
2022-08-05T19:28:08.760Z,3.03
2022-08-05T19:30:35.249Z,3.08
2022-08-05T19:33:01.854Z,3.53
2022-08-05T19:35:55.720Z,4.40
2022-08-05T19:38:24.038Z,2.50
2022-08-05T19:40:53.077Z,2.10
2022-08-05T19:44:04.685Z,4.63
2022-08-05T19:46:06.546Z,1.10
2022-08-05T19:48:44.015Z,0.85
2022-08-05T19:52:04.822Z,2.13
2022-08-05T19:54:05.012Z,1.90
2022-08-05T19:56:34.633Z,2.13
2022-08-05T19:59:21.403Z,1.10
2022-08-05T20:01:48.161Z,3.38
2022-08-05T20:04:14.984Z,3.25
2022-08-05T20:06:46.565Z,3.22
2022-08-05T20:09:13.904Z,5.53
2022-08-05T20:11:40.968Z,2.13
2022-08-05T20:14:19.084Z,9.00
2022-08-05T20:16:53.503Z,1.75
2022-08-05T20:19:21.226Z,2.08
2022-08-05T20:21:49.651Z,5.15
2022-08-05T20:24:16.498Z,1.10
2022-08-05T20:26:43.496Z,2.13
2022-08-05T20:29:26.819Z,3.35
2022-08-05T20:31:58.138Z,2.55
2022-08-05T20:34:26.128Z,2.05
2022-08-05T20:36:52.728Z,2.70
2022-08-05T20:39:19.310Z,3.38
2022-08-05T20:41:47.704Z,2.15
2022-08-05T20:44:19.176Z,1.85
2022-08-05T20:47:00.277Z,2.63
2022-08-05T20:49:26.958Z,4.82
2022-08-05T20:51:54.192Z,1.77
2022-08-05T20:54:21.420Z,2.13
2022-08-05T20:56:48.945Z,3.55
2022-08-05T20:59:19.132Z,2.42
2022-08-05T21:01:53.740Z,2.67
2022-08-05T21:04:27.008Z,3.92
2022-08-05T21:06:57.320Z,4.68
2022-08-05T21:09:26.026Z,2.40
2022-08-05T21:12:09.192Z,2.38
2022-08-05T21:14:38.325Z,3.38
2022-08-05T21:17:05.953Z,5.80
2022-08-05T21:19:47.502Z,3.80
2022-08-05T21:22:17.751Z,1.38
2022-08-05T21:24:45.539Z,4.65
2022-08-05T21:27:16.759Z,4.55
2022-08-05T21:29:48.459Z,2.70
2022-08-05T21:32:20.023Z,4.45
2022-08-05T21:35:08.166Z,5.47
2022-08-05T21:37:35.075Z,4.97
2022-08-05T21:40:13.801Z,6.32
2022-08-05T21:42:44.491Z,2.42
2022-08-05T21:45:14.110Z,2.95
2022-08-05T21:47:55.753Z,3.10
2022-08-05T21:50:23.947Z,4.07
2022-08-05T21:52:50.536Z,5.80
2022-08-05T21:55:42.973Z,3.00
2022-08-05T21:58:10.227Z,2.55
2022-08-05T22:00:38.503Z,3.88
2022-08-05T22:03:07.000Z,3.60
2022-08-05T22:05:49.163Z,2.85
2022-08-05T22:08:22.040Z,2.08
2022-08-05T22:10:53.367Z,2.75
2022-08-05T22:14:06.569Z,4.55
2022-08-05T22:16:26.071Z,5.25
2022-08-05T22:18:58.959Z,2.40
2022-08-05T22:21:27.894Z,4.05
2022-08-05T22:24:40.360Z,2.55
2022-08-05T22:27:18.434Z,2.78
2022-08-05T22:29:45.946Z,2.92
2022-08-05T22:32:17.467Z,1.88
2022-08-05T22:34:44.282Z,2.05
2022-08-05T22:37:12.595Z,2.08
2022-08-05T22:39:39.582Z,3.28
2022-08-05T22:42:12.201Z,3.22
2022-08-05T22:44:47.088Z,2.95
2022-08-05T22:47:28.672Z,4.25
2022-08-05T22:50:22.771Z,4.95
2022-08-05T22:52:46.256Z,1.73
2022-08-05T22:55:19.331Z,2.97
2022-08-05T22:57:47.129Z,7.40
2022-08-05T23:00:18.250Z,2.05
2022-08-05T23:02:48.323Z,3.15
2022-08-05T23:05:15.502Z,2.22
2022-08-05T23:07:45.524Z,2.70
2022-08-05T23:10:19.659Z,1.80
2022-08-05T23:12:47.097Z,3.92
2022-08-05T23:15:13.746Z,4.45
2022-08-05T23:18:01.818Z,4.13
2022-08-05T23:20:30.234Z,3.28
2022-08-05T23:22:58.595Z,2.42
2022-08-05T23:25:50.962Z,5.38
2022-08-05T23:28:12.715Z,3.63
2022-08-05T23:30:53.751Z,3.33
2022-08-05T23:34:02.897Z,3.92
2022-08-05T23:36:10.043Z,3.00
2022-08-05T23:38:37.146Z,2.15
2022-08-05T23:41:03.874Z,2.53
2022-08-05T23:44:04.385Z,2.85
2022-08-05T23:46:19.746Z,2.28
2022-08-05T23:49:00.325Z,3.97
2022-08-05T23:51:52.417Z,2.50
2022-08-05T23:54:25.673Z,1.60
2022-08-05T23:56:52.960Z,1.90
2022-08-05T23:59:20.511Z,2.72
